Arita Maru — JD2435 — position and weather

sailwx.info

Track history (hours):
 
Tides and Currents Weather Stations Pressure Air Temp Water Temp Dewpoint Dewpoint Depression Visibility Wind Speed Wind Dir Waves Ship Positions

Arita Maru

Last reported at 2017-Dec-09 07:57 UTC. Time now 2017-Dec-11 19:15 UTC.
Position N 34°53' E 139°48'.

Length 73 m; draft 4.3 m.

Type: Cargo ship. MMSI: 431000234.

Date/timePositionNaut miles runAvg speedWind from/ knotsBaromVisibWave heightAir tempDewpointWater temp
2017-Dec-09 07:57N 34°53' E 139°48'612.0
2017-Dec-09 07:27N 34°58' E 139°44'511.8
2017-Dec-09 07:01N 35°04' E 139°44'612.6
2017-Dec-09 06:31N 35°10' E 139°46'612.4
2017-Dec-09 06:00N 35°16' E 139°46'612.1
2017-Dec-09 05:30N 35°21' E 139°42'611.3
2017-Dec-09 05:00N 35°27' E 139°43'0 0.0
2017-Dec-09 04:30N 35°27' E 139°43'0 0.4
2017-Dec-09 04:01N 35°27' E 139°43'612.3
2017-Dec-09 03:30N 35°29' E 139°50'712.8
2017-Dec-09 02:58N 35°34' E 139°55'5 1.1
2017-Dec-08 22:10N 35°39' E 139°58'1 9.3
2017-Dec-08 22:01N 35°38' E 139°59'1 1.4
2017-Dec-08 21:18N 35°37' E 139°58'0 0.0
2017-Dec-08 21:00N 35°37' E 139°58'0 0.0
2017-Dec-08 20:24N 35°37' E 139°58'0 0.0
2017-Dec-08 20:00N 35°37' E 139°58'0 0.0
2017-Dec-08 19:30N 35°37' E 139°58'0 0.0
2017-Dec-08 19:00N 35°37' E 139°58'0 0.0
2017-Dec-08 18:30N 35°37' E 139°58'0 0.0
2017-Dec-08 18:00N 35°37' E 139°58'0 0.0
2017-Dec-08 17:30N 35°37' E 139°58'0 0.0
2017-Dec-08 16:54N 35°37' E 139°58'0 0.0
2017-Dec-08 16:30N 35°37' E 139°58'0 0.1
2017-Dec-08 15:54N 35°37' E 139°58'0 0.0
2017-Dec-08 15:24N 35°37' E 139°58'0 0.0
2017-Dec-08 15:00N 35°37' E 139°58'0 0.0
2017-Dec-08 14:30N 35°37' E 139°58'2 4.0
2017-Dec-08 13:59N 35°35' E 139°57'510.8
2017-Dec-08 13:30N 35°31' E 139°53'510.4
2017-Dec-08 13:01N 35°27' E 139°49'510.2
2017-Dec-08 12:31N 35°23' E 139°46'5 9.3
2017-Dec-08 12:00N 35°18' E 139°45'5 9.8
2017-Dec-08 11:30N 35°13' E 139°47'510.5
2017-Dec-08 11:00N 35°08' E 139°45'611.1
2017-Dec-08 10:30N 35°04' E 139°41'611.9
2017-Dec-08 10:00N 35°00' E 139°35'2213.1
2017-Dec-08 08:19N 34°47' E 139°14'812.4
2017-Dec-08 07:41N 34°42' E 139°06'311.2
2017-Dec-08 07:23N 34°40' E 139°03'611.5
2017-Dec-08 06:52N 34°36' E 138°57'20910.0
2017-Dec-07 09:51N 34°05' E 134°46'1312.2
2017-Dec-07 08:48N 34°16' E 134°37'311.1
2017-Dec-07 08:30N 34°17' E 134°33'9111.3
2017-Dec-07 00:24N 34°00' E 132°45'613.0
2017-Dec-06 23:55N 33°55' E 132°40'  
2017-Dec-03 22:24N 34°00' E 131°51'1 0.9
2017-Dec-03 21:44N 33°60' E 131°51'0 0.0
2017-Dec-03 21:29N 33°60' E 131°51'0 0.0
2017-Dec-03 20:56N 33°60' E 131°51'0 0.1
2017-Dec-03 20:20N 33°60' E 131°51'0 0.0
2017-Dec-03 17:20N 33°60' E 131°51'0 0.0
2017-Dec-03 15:38N 33°60' E 131°51'0 0.0
2017-Dec-03 12:20N 33°60' E 131°51'0 0.0
2017-Dec-03 11:08N 33°60' E 131°51'0 0.0
2017-Dec-03 10:56N 33°60' E 131°51'0 0.1
2017-Dec-03 10:26N 33°60' E 131°51'0 0.0
2017-Dec-03 09:50N 33°60' E 131°51'0 0.0
2017-Dec-03 09:14N 33°60' E 131°51'0 0.0
2017-Dec-03 08:56N 33°60' E 131°51'0 0.0
2017-Dec-03 08:26N 33°60' E 131°51'0 0.0
2017-Dec-03 07:56N 33°60' E 131°51'0 0.0
2017-Dec-03 07:23N 33°60' E 131°51'0 0.0
2017-Dec-03 06:20N 33°60' E 131°51'0 0.0
2017-Dec-03 05:43N 33°60' E 131°51'1 4.0
2017-Dec-03 05:30N 33°59' E 131°50'711.8
2017-Dec-03 04:53N 33°55' E 131°43'512.3
2017-Dec-03 04:30N 33°54' E 131°37'612.5
2017-Dec-03 04:00N 33°54' E 131°30'612.7
2017-Dec-03 03:30N 33°53' E 131°22'612.5
2017-Dec-03 03:00N 33°52' E 131°15'612.5
2017-Dec-03 02:30N 33°55' E 131°08'611.9
2017-Dec-03 02:00N 33°58' E 131°02'4 8.1
2017-Dec-03 01:31N 33°57' E 130°57'0 0.3
2017-Dec-03 01:00N 33°57' E 130°57'0 0.0
2017-Dec-03 00:30N 33°57' E 130°57'0 0.0
2017-Dec-03 00:00N 33°57' E 130°57'2 3.1
2017-Dec-02 23:30N 33°56' E 130°56'3 6.4
2017-Dec-02 23:00N 33°54' E 130°53'0 0.7
2017-Dec-02 22:28N 33°54' E 130°52'0 0.0
2017-Dec-02 21:58N 33°54' E 130°52'0 0.0
2017-Dec-02 21:28N 33°54' E 130°52'0 0.0
2017-Dec-02 20:58N 33°54' E 130°52'0 0.0
2017-Dec-02 20:28N 33°54' E 130°52'0 0.0
2017-Dec-02 19:58N 33°54' E 130°52'0 0.0
2017-Dec-02 19:28N 33°54' E 130°52'0 0.0
2017-Dec-02 18:58N 33°54' E 130°52'0 0.0
2017-Dec-02 18:28N 33°54' E 130°52'0 0.0
2017-Dec-02 17:58N 33°54' E 130°52'0 0.0
2017-Dec-02 17:28N 33°54' E 130°52'0 0.0
2017-Dec-02 16:58N 33°54' E 130°52'0 0.0
2017-Dec-02 16:28N 33°54' E 130°52'0 0.0
2017-Dec-02 15:58N 33°54' E 130°52'0 0.0
2017-Dec-02 15:28N 33°54' E 130°52'0 0.0
2017-Dec-02 14:58N 33°54' E 130°52'0 0.0
2017-Dec-02 14:28N 33°54' E 130°52'0 0.0
2017-Dec-02 13:58N 33°54' E 130°52'0 0.0
2017-Dec-02 13:28N 33°54' E 130°52'0 0.0
2017-Dec-02 12:58N 33°54' E 130°52'0 0.0
2017-Dec-02 12:28N 33°54' E 130°52'0 0.0
2017-Dec-02 11:58N 33°54' E 130°52'0 0.0
2017-Dec-02 11:28N 33°54' E 130°52'0 0.1
2017-Dec-02 10:55N 33°54' E 130°52'0 0.1
2017-Dec-02 10:28N 33°54' E 130°52'0 0.0
2017-Dec-02 09:58N 33°54' E 130°52'0 0.0
2017-Dec-02 09:28N 33°54' E 130°52'0 0.0
2017-Dec-02 08:58N 33°54' E 130°52'0 0.0
2017-Dec-02 08:28N 33°54' E 130°52'0 0.0
2017-Dec-02 07:58N 33°54' E 130°52'0 0.0
2017-Dec-02 07:28N 33°54' E 130°52'0 0.0
2017-Dec-02 06:58N 33°54' E 130°52'0 0.0
2017-Dec-02 06:28N 33°54' E 130°52'0 0.0
2017-Dec-02 05:58N 33°54' E 130°52'0 0.0
2017-Dec-02 05:28N 33°54' E 130°52'0 0.0
2017-Dec-02 04:58N 33°54' E 130°52'0 0.0
2017-Dec-02 04:28N 33°54' E 130°52'0 0.0
2017-Dec-02 03:58N 33°54' E 130°52'0 0.0
2017-Dec-02 03:28N 33°54' E 130°52'0 0.0
2017-Dec-02 02:58N 33°54' E 130°52'0 0.0
2017-Dec-02 02:28N 33°54' E 130°52'0 0.0
2017-Dec-02 01:58N 33°54' E 130°52'0 0.0
2017-Dec-02 01:28N 33°54' E 130°52'0 0.0
2017-Dec-02 00:58N 33°54' E 130°52'0 0.0
2017-Dec-02 00:28N 33°54' E 130°52'0 0.0
2017-Dec-01 23:58N 33°54' E 130°52'0 0.0
2017-Dec-01 23:28N 33°54' E 130°52'0 0.0
2017-Dec-01 22:58N 33°54' E 130°52'0 0.0
2017-Dec-01 22:28N 33°54' E 130°52'0 0.0
2017-Dec-01 21:58N 33°54' E 130°52'0 0.0
2017-Dec-01 21:28N 33°54' E 130°52'0 0.0
2017-Dec-01 20:58N 33°54' E 130°52'0 0.0
2017-Dec-01 20:28N 33°54' E 130°52'0 0.0
2017-Dec-01 19:58N 33°54' E 130°52'0 0.0
2017-Dec-01 19:28N 33°54' E 130°52'0 0.0
2017-Dec-01 18:58N 33°54' E 130°52'0 0.0
2017-Dec-01 18:28N 33°54' E 130°52'0 0.0
2017-Dec-01 17:58N 33°54' E 130°52'0 0.0
2017-Dec-01 17:28N 33°54' E 130°52'0 0.0
2017-Dec-01 16:58N 33°54' E 130°52'0 0.0
2017-Dec-01 16:22N 33°54' E 130°52'0 0.0
2017-Dec-01 15:58N 33°54' E 130°52'0 0.0
2017-Dec-01 15:25N 33°54' E 130°52'0 0.0
2017-Dec-01 14:58N 33°54' E 130°52'0 0.0
2017-Dec-01 14:28N 33°54' E 130°52'0 0.0
2017-Dec-01 13:58N 33°54' E 130°52'0 0.0
2017-Dec-01 13:28N 33°54' E 130°52'0 0.0
2017-Dec-01 12:58N 33°54' E 130°52'0 0.0
2017-Dec-01 12:28N 33°54' E 130°52'0 0.0
2017-Dec-01 11:58N 33°54' E 130°52'0 0.0
2017-Dec-01 11:28N 33°54' E 130°52'0 0.1
2017-Dec-01 10:58N 33°54' E 130°52'0 0.1
2017-Dec-01 10:28N 33°54' E 130°52'0 0.0
2017-Dec-01 09:58N 33°54' E 130°52'0 0.0
2017-Dec-01 09:28N 33°54' E 130°52'0 0.0
2017-Dec-01 08:58N 33°54' E 130°52'0 0.0
2017-Dec-01 08:28N 33°54' E 130°52'0 0.0
2017-Dec-01 07:58N 33°54' E 130°52'0 0.0
2017-Dec-01 07:28N 33°54' E 130°52'0 0.0
2017-Dec-01 06:58N 33°54' E 130°52'0 0.0
2017-Dec-01 06:28N 33°54' E 130°52'0 0.0
2017-Dec-01 05:58N 33°54' E 130°52'0 0.0
2017-Dec-01 05:28N 33°54' E 130°52'0 0.0
2017-Dec-01 04:58N 33°54' E 130°52'0 0.0
2017-Dec-01 04:28N 33°54' E 130°52'0 0.0
2017-Dec-01 03:55N 33°54' E 130°52'0 0.0
2017-Dec-01 03:28N 33°54' E 130°52'0 0.0
2017-Dec-01 02:58N 33°54' E 130°52'0 0.0
2017-Dec-01 02:28N 33°54' E 130°52'0 0.0
2017-Dec-01 01:58N 33°54' E 130°52'0 0.0
2017-Dec-01 01:28N 33°54' E 130°52'0 0.0
2017-Dec-01 00:58N 33°54' E 130°52'0 0.0
2017-Dec-01 00:28N 33°54' E 130°52'0 0.0
2017-Nov-30 23:58N 33°54' E 130°52'0 0.0
2017-Nov-30 23:28N 33°54' E 130°52'0 0.0
2017-Nov-30 22:55N 33°54' E 130°52'0 0.0
2017-Nov-30 22:28N 33°54' E 130°52'0 0.0
2017-Nov-30 21:58N 33°54' E 130°52'0 0.0
2017-Nov-30 21:25N 33°54' E 130°52'0 0.0
2017-Nov-30 20:58N 33°54' E 130°52'0 0.0
2017-Nov-30 20:28N 33°54' E 130°52'0 0.0
2017-Nov-30 19:55N 33°54' E 130°52'0 0.0
2017-Nov-30 19:28N 33°54' E 130°52'0 0.0
2017-Nov-30 18:58N 33°54' E 130°52'0 0.0
2017-Nov-30 18:28N 33°54' E 130°52'0 0.0
2017-Nov-30 17:58N 33°54' E 130°52'0 0.0
2017-Nov-30 17:28N 33°54' E 130°52'0 0.0
2017-Nov-30 16:58N 33°54' E 130°52'0 0.0
2017-Nov-30 16:28N 33°54' E 130°52'0 0.0
2017-Nov-30 15:58N 33°54' E 130°52'0 0.0
2017-Nov-30 15:28N 33°54' E 130°52'0 0.0
2017-Nov-30 14:58N 33°54' E 130°52'0 0.0
2017-Nov-30 14:28N 33°54' E 130°52'0 0.0
2017-Nov-30 13:58N 33°54' E 130°52'0 0.0
2017-Nov-30 13:28N 33°54' E 130°52'0 0.0
2017-Nov-30 12:58N 33°54' E 130°52'0 0.0
2017-Nov-30 12:28N 33°54' E 130°52'0 0.0
2017-Nov-30 11:58N 33°54' E 130°52'0 0.0
2017-Nov-30 11:28N 33°54' E 130°52'0 0.0
2017-Nov-30 10:58N 33°54' E 130°52'0 0.0
2017-Nov-30 10:28N 33°54' E 130°52'0 0.0
2017-Nov-30 09:58N 33°54' E 130°52'0 0.0
2017-Nov-30 09:28N 33°54' E 130°52'0 0.0
2017-Nov-30 08:58N 33°54' E 130°52'0 0.0
2017-Nov-30 08:25N 33°54' E 130°52'0 0.0
2017-Nov-30 07:58N 33°54' E 130°52'0 0.0
2017-Nov-30 07:28N 33°54' E 130°52'0 0.0
2017-Nov-30 06:58N 33°54' E 130°52'0 0.0
2017-Nov-30 06:28N 33°54' E 130°52'0 0.0
2017-Nov-30 05:58N 33°54' E 130°52'0 0.1
2017-Nov-30 05:28N 33°54' E 130°52'0 0.1
2017-Nov-30 04:58N 33°54' E 130°52'0 0.0
2017-Nov-30 04:28N 33°54' E 130°52'0 0.0
2017-Nov-30 03:58N 33°54' E 130°52'0 0.0
2017-Nov-30 03:28N 33°54' E 130°52'0 0.0
2017-Nov-30 02:58N 33°54' E 130°52'0 0.0
2017-Nov-30 02:28N 33°54' E 130°52'0 0.0
2017-Nov-30 01:58N 33°54' E 130°52'0 0.0
2017-Nov-30 01:28N 33°54' E 130°52'0 0.0
2017-Nov-30 00:58N 33°54' E 130°52'0 0.0
2017-Nov-30 00:28N 33°54' E 130°52'0 0.0
2017-Nov-29 23:58N 33°54' E 130°52'0 0.0
2017-Nov-29 23:28N 33°54' E 130°52'0 0.0
2017-Nov-29 22:58N 33°54' E 130°52'0 0.0
2017-Nov-29 22:28N 33°54' E 130°52'0 0.0
2017-Nov-29 21:58N 33°54' E 130°52'0 0.0
2017-Nov-29 21:28N 33°54' E 130°52'0 0.0
2017-Nov-29 20:58N 33°54' E 130°52'0 0.0
2017-Nov-29 20:28N 33°54' E 130°52'0 0.0
2017-Nov-29 19:55N 33°54' E 130°52'0 0.0
2017-Nov-29 19:28N 33°54' E 130°52'0 0.0
2017-Nov-29 18:58N 33°54' E 130°52'0 0.0
2017-Nov-29 18:28N 33°54' E 130°52'0 0.0
2017-Nov-29 17:58N 33°54' E 130°52'0 0.0
2017-Nov-29 17:28N 33°54' E 130°52'0 0.0
2017-Nov-29 16:58N 33°54' E 130°52'0 0.0
2017-Nov-29 16:28N 33°54' E 130°52'0 0.0
2017-Nov-29 15:58N 33°54' E 130°52'0 0.0
2017-Nov-29 15:28N 33°54' E 130°52'0 0.1
2017-Nov-29 14:58N 33°54' E 130°52'0 0.1
2017-Nov-29 14:28N 33°54' E 130°52'0 0.0
2017-Nov-29 13:58N 33°54' E 130°52'0 0.0
2017-Nov-29 13:28N 33°54' E 130°52'0 0.0
2017-Nov-29 12:58N 33°54' E 130°52'0 0.0
2017-Nov-29 12:28N 33°54' E 130°52'0 0.0
2017-Nov-29 11:58N 33°54' E 130°52'0 0.1
2017-Nov-29 11:28N 33°54' E 130°52'0 0.1
2017-Nov-29 10:58N 33°54' E 130°52'0 0.0
2017-Nov-29 10:28N 33°54' E 130°52'0 0.0
2017-Nov-29 09:58N 33°54' E 130°52'0 0.1
2017-Nov-29 09:28N 33°54' E 130°52'0 0.1
2017-Nov-29 08:58N 33°54' E 130°52'0 0.0
2017-Nov-29 08:28N 33°54' E 130°52'0 0.0
2017-Nov-29 07:58N 33°54' E 130°52'  
Track history (hours):
 
Tides and Currents Weather Stations Pressure Air Temp Water Temp Dewpoint Dewpoint Depression Visibility Wind Speed Wind Dir Waves Ship Positions

Arita Maru

Last reported at 2017-Dec-09 07:57 UTC. Time now 2017-Dec-11 19:15 UTC.
Position N 34°53' E 139°48'.

Length 73 m; draft 4.3 m.

Type: Cargo ship. MMSI: 431000234.

Date/timePositionNaut miles runAvg speedWind from/ knotsBaromVisibWave heightAir tempDewpointWater temp
2017-Dec-09 07:57N 34°53' E 139°48'612.0
2017-Dec-09 07:27N 34°58' E 139°44'511.8
2017-Dec-09 07:01N 35°04' E 139°44'612.6
2017-Dec-09 06:31N 35°10' E 139°46'612.4
2017-Dec-09 06:00N 35°16' E 139°46'612.1
2017-Dec-09 05:30N 35°21' E 139°42'611.3
2017-Dec-09 05:00N 35°27' E 139°43'0 0.0
2017-Dec-09 04:30N 35°27' E 139°43'0 0.4
2017-Dec-09 04:01N 35°27' E 139°43'612.3
2017-Dec-09 03:30N 35°29' E 139°50'712.8
2017-Dec-09 02:58N 35°34' E 139°55'5 1.1
2017-Dec-08 22:10N 35°39' E 139°58'1 9.3
2017-Dec-08 22:01N 35°38' E 139°59'1 1.4
2017-Dec-08 21:18N 35°37' E 139°58'0 0.0
2017-Dec-08 21:00N 35°37' E 139°58'0 0.0
2017-Dec-08 20:24N 35°37' E 139°58'0 0.0
2017-Dec-08 20:00N 35°37' E 139°58'0 0.0
2017-Dec-08 19:30N 35°37' E 139°58'0 0.0
2017-Dec-08 19:00N 35°37' E 139°58'0 0.0
2017-Dec-08 18:30N 35°37' E 139°58'0 0.0
2017-Dec-08 18:00N 35°37' E 139°58'0 0.0
2017-Dec-08 17:30N 35°37' E 139°58'0 0.0
2017-Dec-08 16:54N 35°37' E 139°58'0 0.0
2017-Dec-08 16:30N 35°37' E 139°58'0 0.1
2017-Dec-08 15:54N 35°37' E 139°58'0 0.0
2017-Dec-08 15:24N 35°37' E 139°58'0 0.0
2017-Dec-08 15:00N 35°37' E 139°58'0 0.0
2017-Dec-08 14:30N 35°37' E 139°58'2 4.0
2017-Dec-08 13:59N 35°35' E 139°57'510.8
2017-Dec-08 13:30N 35°31' E 139°53'510.4
2017-Dec-08 13:01N 35°27' E 139°49'510.2
2017-Dec-08 12:31N 35°23' E 139°46'5 9.3
2017-Dec-08 12:00N 35°18' E 139°45'5 9.8
2017-Dec-08 11:30N 35°13' E 139°47'510.5
2017-Dec-08 11:00N 35°08' E 139°45'611.1
2017-Dec-08 10:30N 35°04' E 139°41'611.9
2017-Dec-08 10:00N 35°00' E 139°35'2213.1
2017-Dec-08 08:19N 34°47' E 139°14'812.4
2017-Dec-08 07:41N 34°42' E 139°06'311.2
2017-Dec-08 07:23N 34°40' E 139°03'611.5
2017-Dec-08 06:52N 34°36' E 138°57'20910.0
2017-Dec-07 09:51N 34°05' E 134°46'1312.2
2017-Dec-07 08:48N 34°16' E 134°37'311.1
2017-Dec-07 08:30N 34°17' E 134°33'9111.3
2017-Dec-07 00:24N 34°00' E 132°45'613.0
2017-Dec-06 23:55N 33°55' E 132°40'  
2017-Dec-03 22:24N 34°00' E 131°51'1 0.9
2017-Dec-03 21:44N 33°60' E 131°51'0 0.0
2017-Dec-03 21:29N 33°60' E 131°51'0 0.0
2017-Dec-03 20:56N 33°60' E 131°51'0 0.1
2017-Dec-03 20:20N 33°60' E 131°51'0 0.0
2017-Dec-03 17:20N 33°60' E 131°51'0 0.0
2017-Dec-03 15:38N 33°60' E 131°51'0 0.0
2017-Dec-03 12:20N 33°60' E 131°51'0 0.0
2017-Dec-03 11:08N 33°60' E 131°51'0 0.0
2017-Dec-03 10:56N 33°60' E 131°51'0 0.1
2017-Dec-03 10:26N 33°60' E 131°51'0 0.0
2017-Dec-03 09:50N 33°60' E 131°51'0 0.0
2017-Dec-03 09:14N 33°60' E 131°51'0 0.0
2017-Dec-03 08:56N 33°60' E 131°51'0 0.0
2017-Dec-03 08:26N 33°60' E 131°51'0 0.0
2017-Dec-03 07:56N 33°60' E 131°51'0 0.0
2017-Dec-03 07:23N 33°60' E 131°51'0 0.0
2017-Dec-03 06:20N 33°60' E 131°51'0 0.0
2017-Dec-03 05:43N 33°60' E 131°51'1 4.0
2017-Dec-03 05:30N 33°59' E 131°50'711.8
2017-Dec-03 04:53N 33°55' E 131°43'512.3
2017-Dec-03 04:30N 33°54' E 131°37'612.5
2017-Dec-03 04:00N 33°54' E 131°30'612.7
2017-Dec-03 03:30N 33°53' E 131°22'612.5
2017-Dec-03 03:00N 33°52' E 131°15'612.5
2017-Dec-03 02:30N 33°55' E 131°08'611.9
2017-Dec-03 02:00N 33°58' E 131°02'4 8.1
2017-Dec-03 01:31N 33°57' E 130°57'0 0.3
2017-Dec-03 01:00N 33°57' E 130°57'0 0.0
2017-Dec-03 00:30N 33°57' E 130°57'0 0.0
2017-Dec-03 00:00N 33°57' E 130°57'2 3.1
2017-Dec-02 23:30N 33°56' E 130°56'3 6.4
2017-Dec-02 23:00N 33°54' E 130°53'0 0.7
2017-Dec-02 22:28N 33°54' E 130°52'0 0.0
2017-Dec-02 21:58N 33°54' E 130°52'0 0.0
2017-Dec-02 21:28N 33°54' E 130°52'0 0.0
2017-Dec-02 20:58N 33°54' E 130°52'0 0.0
2017-Dec-02 20:28N 33°54' E 130°52'0 0.0
2017-Dec-02 19:58N 33°54' E 130°52'0 0.0
2017-Dec-02 19:28N 33°54' E 130°52'0 0.0
2017-Dec-02 18:58N 33°54' E 130°52'0 0.0
2017-Dec-02 18:28N 33°54' E 130°52'0 0.0
2017-Dec-02 17:58N 33°54' E 130°52'0 0.0
2017-Dec-02 17:28N 33°54' E 130°52'0 0.0
2017-Dec-02 16:58N 33°54' E 130°52'0 0.0
2017-Dec-02 16:28N 33°54' E 130°52'0 0.0
2017-Dec-02 15:58N 33°54' E 130°52'0 0.0
2017-Dec-02 15:28N 33°54' E 130°52'0 0.0
2017-Dec-02 14:58N 33°54' E 130°52'0 0.0
2017-Dec-02 14:28N 33°54' E 130°52'0 0.0
2017-Dec-02 13:58N 33°54' E 130°52'0 0.0
2017-Dec-02 13:28N 33°54' E 130°52'0 0.0
2017-Dec-02 12:58N 33°54' E 130°52'0 0.0
2017-Dec-02 12:28N 33°54' E 130°52'0 0.0
2017-Dec-02 11:58N 33°54' E 130°52'0 0.0
2017-Dec-02 11:28N 33°54' E 130°52'0 0.1
2017-Dec-02 10:55N 33°54' E 130°52'0 0.1
2017-Dec-02 10:28N 33°54' E 130°52'0 0.0
2017-Dec-02 09:58N 33°54' E 130°52'0 0.0
2017-Dec-02 09:28N 33°54' E 130°52'0 0.0
2017-Dec-02 08:58N 33°54' E 130°52'0 0.0
2017-Dec-02 08:28N 33°54' E 130°52'0 0.0
2017-Dec-02 07:58N 33°54' E 130°52'0 0.0
2017-Dec-02 07:28N 33°54' E 130°52'0 0.0
2017-Dec-02 06:58N 33°54' E 130°52'0 0.0
2017-Dec-02 06:28N 33°54' E 130°52'0 0.0
2017-Dec-02 05:58N 33°54' E 130°52'0 0.0
2017-Dec-02 05:28N 33°54' E 130°52'0 0.0
2017-Dec-02 04:58N 33°54' E 130°52'0 0.0
2017-Dec-02 04:28N 33°54' E 130°52'0 0.0
2017-Dec-02 03:58N 33°54' E 130°52'0 0.0
2017-Dec-02 03:28N 33°54' E 130°52'0 0.0
2017-Dec-02 02:58N 33°54' E 130°52'0 0.0
2017-Dec-02 02:28N 33°54' E 130°52'0 0.0
2017-Dec-02 01:58N 33°54' E 130°52'0 0.0
2017-Dec-02 01:28N 33°54' E 130°52'0 0.0
2017-Dec-02 00:58N 33°54' E 130°52'0 0.0
2017-Dec-02 00:28N 33°54' E 130°52'0 0.0
2017-Dec-01 23:58N 33°54' E 130°52'0 0.0
2017-Dec-01 23:28N 33°54' E 130°52'0 0.0
2017-Dec-01 22:58N 33°54' E 130°52'0 0.0
2017-Dec-01 22:28N 33°54' E 130°52'0 0.0
2017-Dec-01 21:58N 33°54' E 130°52'0 0.0
2017-Dec-01 21:28N 33°54' E 130°52'0 0.0
2017-Dec-01 20:58N 33°54' E 130°52'0 0.0
2017-Dec-01 20:28N 33°54' E 130°52'0 0.0
2017-Dec-01 19:58N 33°54' E 130°52'0 0.0
2017-Dec-01 19:28N 33°54' E 130°52'0 0.0
2017-Dec-01 18:58N 33°54' E 130°52'0 0.0
2017-Dec-01 18:28N 33°54' E 130°52'0 0.0
2017-Dec-01 17:58N 33°54' E 130°52'0 0.0
2017-Dec-01 17:28N 33°54' E 130°52'0 0.0
2017-Dec-01 16:58N 33°54' E 130°52'0 0.0
2017-Dec-01 16:22N 33°54' E 130°52'0 0.0
2017-Dec-01 15:58N 33°54' E 130°52'0 0.0
2017-Dec-01 15:25N 33°54' E 130°52'0 0.0
2017-Dec-01 14:58N 33°54' E 130°52'0 0.0
2017-Dec-01 14:28N 33°54' E 130°52'0 0.0
2017-Dec-01 13:58N 33°54' E 130°52'0 0.0
2017-Dec-01 13:28N 33°54' E 130°52'0 0.0
2017-Dec-01 12:58N 33°54' E 130°52'0 0.0
2017-Dec-01 12:28N 33°54' E 130°52'0 0.0
2017-Dec-01 11:58N 33°54' E 130°52'0 0.0
2017-Dec-01 11:28N 33°54' E 130°52'0 0.1
2017-Dec-01 10:58N 33°54' E 130°52'0 0.1
2017-Dec-01 10:28N 33°54' E 130°52'0 0.0
2017-Dec-01 09:58N 33°54' E 130°52'0 0.0
2017-Dec-01 09:28N 33°54' E 130°52'0 0.0
2017-Dec-01 08:58N 33°54' E 130°52'0 0.0
2017-Dec-01 08:28N 33°54' E 130°52'0 0.0
2017-Dec-01 07:58N 33°54' E 130°52'0 0.0
2017-Dec-01 07:28N 33°54' E 130°52'0 0.0
2017-Dec-01 06:58N 33°54' E 130°52'0 0.0
2017-Dec-01 06:28N 33°54' E 130°52'0 0.0
2017-Dec-01 05:58N 33°54' E 130°52'0 0.0
2017-Dec-01 05:28N 33°54' E 130°52'0 0.0
2017-Dec-01 04:58N 33°54' E 130°52'0 0.0
2017-Dec-01 04:28N 33°54' E 130°52'0 0.0
2017-Dec-01 03:55N 33°54' E 130°52'0 0.0
2017-Dec-01 03:28N 33°54' E 130°52'0 0.0
2017-Dec-01 02:58N 33°54' E 130°52'0 0.0
2017-Dec-01 02:28N 33°54' E 130°52'0 0.0
2017-Dec-01 01:58N 33°54' E 130°52'0 0.0
2017-Dec-01 01:28N 33°54' E 130°52'0 0.0
2017-Dec-01 00:58N 33°54' E 130°52'0 0.0
2017-Dec-01 00:28N 33°54' E 130°52'0 0.0
2017-Nov-30 23:58N 33°54' E 130°52'0 0.0
2017-Nov-30 23:28N 33°54' E 130°52'0 0.0
2017-Nov-30 22:55N 33°54' E 130°52'0 0.0
2017-Nov-30 22:28N 33°54' E 130°52'0 0.0
2017-Nov-30 21:58N 33°54' E 130°52'0 0.0
2017-Nov-30 21:25N 33°54' E 130°52'0 0.0
2017-Nov-30 20:58N 33°54' E 130°52'0 0.0
2017-Nov-30 20:28N 33°54' E 130°52'0 0.0
2017-Nov-30 19:55N 33°54' E 130°52'0 0.0
2017-Nov-30 19:28N 33°54' E 130°52'0 0.0
2017-Nov-30 18:58N 33°54' E 130°52'0 0.0
2017-Nov-30 18:28N 33°54' E 130°52'0 0.0
2017-Nov-30 17:58N 33°54' E 130°52'0 0.0
2017-Nov-30 17:28N 33°54' E 130°52'0 0.0
2017-Nov-30 16:58N 33°54' E 130°52'0 0.0
2017-Nov-30 16:28N 33°54' E 130°52'0 0.0
2017-Nov-30 15:58N 33°54' E 130°52'0 0.0
2017-Nov-30 15:28N 33°54' E 130°52'0 0.0
2017-Nov-30 14:58N 33°54' E 130°52'0 0.0
2017-Nov-30 14:28N 33°54' E 130°52'0 0.0
2017-Nov-30 13:58N 33°54' E 130°52'0 0.0
2017-Nov-30 13:28N 33°54' E 130°52'0 0.0
2017-Nov-30 12:58N 33°54' E 130°52'0 0.0
2017-Nov-30 12:28N 33°54' E 130°52'0 0.0
2017-Nov-30 11:58N 33°54' E 130°52'0 0.0
2017-Nov-30 11:28N 33°54' E 130°52'0 0.0
2017-Nov-30 10:58N 33°54' E 130°52'0 0.0
2017-Nov-30 10:28N 33°54' E 130°52'0 0.0
2017-Nov-30 09:58N 33°54' E 130°52'0 0.0
2017-Nov-30 09:28N 33°54' E 130°52'0 0.0
2017-Nov-30 08:58N 33°54' E 130°52'0 0.0
2017-Nov-30 08:25N 33°54' E 130°52'0 0.0
2017-Nov-30 07:58N 33°54' E 130°52'0 0.0
2017-Nov-30 07:28N 33°54' E 130°52'0 0.0
2017-Nov-30 06:58N 33°54' E 130°52'0 0.0
2017-Nov-30 06:28N 33°54' E 130°52'0 0.0
2017-Nov-30 05:58N 33°54' E 130°52'0 0.1
2017-Nov-30 05:28N 33°54' E 130°52'0 0.1
2017-Nov-30 04:58N 33°54' E 130°52'0 0.0
2017-Nov-30 04:28N 33°54' E 130°52'0 0.0
2017-Nov-30 03:58N 33°54' E 130°52'0 0.0
2017-Nov-30 03:28N 33°54' E 130°52'0 0.0
2017-Nov-30 02:58N 33°54' E 130°52'0 0.0
2017-Nov-30 02:28N 33°54' E 130°52'0 0.0
2017-Nov-30 01:58N 33°54' E 130°52'0 0.0
2017-Nov-30 01:28N 33°54' E 130°52'0 0.0
2017-Nov-30 00:58N 33°54' E 130°52'0 0.0
2017-Nov-30 00:28N 33°54' E 130°52'0 0.0
2017-Nov-29 23:58N 33°54' E 130°52'0 0.0
2017-Nov-29 23:28N 33°54' E 130°52'0 0.0
2017-Nov-29 22:58N 33°54' E 130°52'0 0.0
2017-Nov-29 22:28N 33°54' E 130°52'0 0.0
2017-Nov-29 21:58N 33°54' E 130°52'0 0.0
2017-Nov-29 21:28N 33°54' E 130°52'0 0.0
2017-Nov-29 20:58N 33°54' E 130°52'0 0.0
2017-Nov-29 20:28N 33°54' E 130°52'0 0.0
2017-Nov-29 19:55N 33°54' E 130°52'0 0.0
2017-Nov-29 19:28N 33°54' E 130°52'0 0.0
2017-Nov-29 18:58N 33°54' E 130°52'0 0.0
2017-Nov-29 18:28N 33°54' E 130°52'0 0.0
2017-Nov-29 17:58N 33°54' E 130°52'0 0.0
2017-Nov-29 17:28N 33°54' E 130°52'0 0.0
2017-Nov-29 16:58N 33°54' E 130°52'0 0.0
2017-Nov-29 16:28N 33°54' E 130°52'0 0.0
2017-Nov-29 15:58N 33°54' E 130°52'0 0.0
2017-Nov-29 15:28N 33°54' E 130°52'0 0.1
2017-Nov-29 14:58N 33°54' E 130°52'0 0.1
2017-Nov-29 14:28N 33°54' E 130°52'0 0.0
2017-Nov-29 13:58N 33°54' E 130°52'0 0.0
2017-Nov-29 13:28N 33°54' E 130°52'0 0.0
2017-Nov-29 12:58N 33°54' E 130°52'0 0.0
2017-Nov-29 12:28N 33°54' E 130°52'0 0.0
2017-Nov-29 11:58N 33°54' E 130°52'0 0.1
2017-Nov-29 11:28N 33°54' E 130°52'0 0.1
2017-Nov-29 10:58N 33°54' E 130°52'0 0.0
2017-Nov-29 10:28N 33°54' E 130°52'0 0.0
2017-Nov-29 09:58N 33°54' E 130°52'0 0.1
2017-Nov-29 09:28N 33°54' E 130°52'0 0.1
2017-Nov-29 08:58N 33°54' E 130°52'0 0.0
2017-Nov-29 08:28N 33°54' E 130°52'0 0.0
2017-Nov-29 07:58N 33°54' E 130°52'  

Dump ship's entire track history